Time;durP1;ratioP1;P1;durP2;ratioP2;P2;SDS_P1;SDS_P2;PMS_P1;PMS_P2;Temp;Humidity;BMP_temperature;BMP_pressure;BME280_temperature;BME280_humidity;BME280_pressure;Samples;Min_cycle;Max_cycle;Signal;HPM_P1;HPM_P2
2022/07/03 00:01:51;;;;;;;4.50;2.17;;;;;;;;;;5010815;28;20052;-84
2022/07/03 00:40:18;;;;;;;5.32;2.42;;;;;;;;;;4997497;28;20061;-85
2022/07/03 00:42:53;;;;;;;4.38;2.15;;;;;;;;;;5008309;28;20053;-84
2022/07/03 01:10:45;;;;;;;3.05;2.05;;;;;;;;;;4993485;28;21128;-91
2022/07/03 01:13:44;;;;;;;3.15;1.90;;;;;;;;;;4961207;28;20559;-85
2022/07/03 01:39:36;;;;;;;4.03;2.55;;;;;;;;;;5014628;28;20057;-85
2022/07/03 01:42:19;;;;;;;2.97;1.98;;;;;;;;;;4991014;28;20060;-85
2022/07/03 02:27:33;;;;;;;4.60;2.28;;;;;;;;;;5017467;28;20112;-93
2022/07/03 02:30:18;;;;;;;3.53;2.20;;;;;;;;;;4995907;28;20080;-85
2022/07/03 02:33:19;;;;;;;3.00;2.00;;;;;;;;;;4992061;28;20064;-84
2022/07/03 02:36:09;;;;;;;3.17;1.88;;;;;;;;;;4981929;28;20053;-84
2022/07/03 02:39:04;;;;;;;5.75;2.00;;;;;;;;;;5014064;28;20989;-85
2022/07/03 02:41:53;;;;;;;4.10;2.40;;;;;;;;;;4998048;28;20085;-85
2022/07/03 02:45:04;;;;;;;3.20;1.97;;;;;;;;;;5001563;28;20046;-85
2022/07/03 02:48:04;;;;;;;7.55;2.20;;;;;;;;;;4999262;28;20113;-85
2022/07/03 02:51:17;;;;;;;4.10;1.92;;;;;;;;;;4994140;28;20116;-85
2022/07/03 02:54:08;;;;;;;4.18;2.08;;;;;;;;;;4992142;28;20045;-84
2022/07/03 02:58:22;;;;;;;3.28;2.20;;;;;;;;;;4986912;28;20046;-84
2022/07/03 03:01:57;;;;;;;3.17;2.30;;;;;;;;;;4919507;28;20157;-85
2022/07/03 03:05:20;;;;;;;3.90;1.83;;;;;;;;;;4918687;29;20052;-84
2022/07/03 03:08:34;;;;;;;3.42;2.30;;;;;;;;;;4913791;28;20067;-85
2022/07/03 03:11:49;;;;;;;5.32;2.65;;;;;;;;;;4920199;28;20043;-85
2022/07/03 03:15:01;;;;;;;5.82;2.25;;;;;;;;;;4910596;29;20074;-84
2022/07/03 03:17:52;;;;;;;3.15;2.00;;;;;;;;;;4928050;28;20052;-85
2022/07/03 03:22:02;;;;;;;4.82;2.20;;;;;;;;;;4927620;28;20115;-84
2022/07/03 03:24:44;;;;;;;2.72;2.03;;;;;;;;;;4903507;29;20095;-84
2022/07/03 03:28:55;;;;;;;4.30;2.28;;;;;;;;;;4876678;29;20053;-84
2022/07/03 03:32:47;;;;;;;2.92;2.30;;;;;;;;;;4839140;29;20049;-85
2022/07/03 03:35:36;;;;;;;4.15;2.13;;;;;;;;;;4833933;29;20064;-84
2022/07/03 03:38:46;;;;;;;3.08;2.00;;;;;;;;;;4834168;29;20137;-84
2022/07/03 03:41:38;;;;;;;3.10;2.00;;;;;;;;;;4829445;29;20068;-85
2022/07/03 03:44:46;;;;;;;4.05;2.30;;;;;;;;;;4842151;29;20061;-85
2022/07/03 03:47:27;;;;;;;3.50;2.08;;;;;;;;;;4848322;29;20085;-85
2022/07/03 03:50:14;;;;;;;6.70;1.95;;;;;;;;;;4829937;29;20060;-85
2022/07/03 03:53:43;;;;;;;4.13;2.10;;;;;;;;;;4834565;29;20149;-85
2022/07/03 03:56:26;;;;;;;3.22;1.90;;;;;;;;;;4843536;29;20057;-85
2022/07/03 03:59:35;;;;;;;3.80;2.42;;;;;;;;;;4842362;29;20165;-85
2022/07/03 04:02:27;;;;;;;4.28;2.28;;;;;;;;;;4835652;29;20948;-84
2022/07/03 04:06:16;;;;;;;3.17;1.95;;;;;;;;;;4894364;29;20049;-84
2022/07/03 04:28:36;;;;;;;3.38;2.20;;;;;;;;;;4956991;28;20046;-91
2022/07/03 04:32:23;;;;;;;3.80;2.30;;;;;;;;;;4943625;29;20065;-84
2022/07/03 04:59:28;;;;;;;4.05;2.42;;;;;;;;;;4953595;28;20122;-86
2022/07/03 05:03:17;;;;;;;4.15;2.33;;;;;;;;;;4951805;28;20064;-87
2022/07/03 05:07:13;;;;;;;3.05;2.10;;;;;;;;;;4945486;28;20509;-84
2022/07/03 05:09:58;;;;;;;3.50;2.47;;;;;;;;;;4938731;28;20050;-86
2022/07/03 05:14:08;;;;;;;2.95;2.22;;;;;;;;;;4945001;28;20063;-86
2022/07/03 05:18:19;;;;;;;4.82;2.33;;;;;;;;;;4996486;28;20129;-88
2022/07/03 05:27:07;;;;;;;5.60;2.50;;;;;;;;;;4991527;28;20042;-86
2022/07/03 05:31:01;;;;;;;2.90;2.08;;;;;;;;;;4943008;28;20158;-84
2022/07/03 05:34:18;;;;;;;5.57;2.20;;;;;;;;;;4917823;29;20621;-84
2022/07/03 05:37:26;;;;;;;3.00;2.00;;;;;;;;;;4904914;29;20051;-85
2022/07/03 05:58:59;;;;;;;3.42;2.28;;;;;;;;;;4884018;29;20060;-84
2022/07/03 06:02:23;;;;;;;3.30;2.10;;;;;;;;;;4926961;28;20474;-83
2022/07/03 06:05:32;;;;;;;3.67;2.40;;;;;;;;;;4952756;28;20051;-85
2022/07/03 06:08:21;;;;;;;5.22;2.10;;;;;;;;;;4942721;28;20051;-85
2022/07/03 06:12:13;;;;;;;3.92;2.20;;;;;;;;;;4919669;28;20556;-84
2022/07/03 06:15:09;;;;;;;2.90;1.90;;;;;;;;;;4954507;28;20061;-86
2022/07/03 06:18:40;;;;;;;3.70;2.30;;;;;;;;;;4928814;28;20067;-85
2022/07/03 06:22:04;;;;;;;3.83;2.08;;;;;;;;;;4943623;28;20106;-84
2022/07/03 06:26:22;;;;;;;4.75;2.20;;;;;;;;;;4889790;29;20053;-84
2022/07/03 06:29:46;;;;;;;2.55;1.63;;;;;;;;;;4891832;29;20091;-86
2022/07/03 06:33:27;;;;;;;6.68;2.47;;;;;;;;;;4887154;29;20120;-86
2022/07/03 06:38:07;;;;;;;3.88;2.08;;;;;;;;;;4881479;29;20051;-86
2022/07/03 06:46:24;;;;;;;3.53;2.15;;;;;;;;;;4861856;29;20034;-86
2022/07/03 06:49:12;;;;;;;4.57;1.88;;;;;;;;;;4862783;29;20539;-83
2022/07/03 06:51:39;;;;;;;4.20;2.15;;;;;;;;;;4826531;29;20539;-83
2022/07/03 06:54:07;;;;;;;3.45;1.80;;;;;;;;;;4881519;29;20053;-84
2022/07/03 06:56:42;;;;;;;2.78;1.95;;;;;;;;;;4911063;29;20486;-84
2022/07/03 06:59:33;;;;;;;4.72;2.00;;;;;;;;;;4913897;29;20193;-84
2022/07/03 07:02:25;;;;;;;3.28;2.25;;;;;;;;;;4917245;29;20147;-84
2022/07/03 07:04:53;;;;;;;3.42;2.17;;;;;;;;;;4916018;29;20068;-84
2022/07/03 07:07:21;;;;;;;2.80;1.80;;;;;;;;;;4928786;28;20421;-84
2022/07/03 07:09:53;;;;;;;2.47;1.63;;;;;;;;;;4952294;28;20053;-84
2022/07/03 07:12:31;;;;;;;2.88;1.70;;;;;;;;;;4937597;28;20047;-84
2022/07/03 07:15:06;;;;;;;5.53;2.05;;;;;;;;;;4939332;28;20054;-84
2022/07/03 07:17:33;;;;;;;3.80;1.80;;;;;;;;;;4951501;28;20087;-84
2022/07/03 07:20:07;;;;;;;2.80;1.70;;;;;;;;;;4940483;28;20051;-84
2022/07/03 07:22:36;;;;;;;3.67;1.83;;;;;;;;;;5010368;28;20064;-84
2022/07/03 07:25:04;;;;;;;4.28;1.70;;;;;;;;;;4998339;28;20518;-84
2022/07/03 07:27:37;;;;;;;3.55;2.10;;;;;;;;;;5017832;28;20037;-85
2022/07/03 07:30:25;;;;;;;3.65;1.98;;;;;;;;;;4998163;28;20048;-84
2022/07/03 07:32:53;;;;;;;2.90;1.80;;;;;;;;;;5015486;28;20045;-84
2022/07/03 07:36:03;;;;;;;6.53;1.90;;;;;;;;;;4999067;28;20403;-87
2022/07/03 07:38:46;;;;;;;4.03;2.00;;;;;;;;;;5015381;28;20045;-85
2022/07/03 07:41:27;;;;;;;3.08;1.80;;;;;;;;;;5000917;28;20072;-83
2022/07/03 07:43:55;;;;;;;3.58;1.80;;;;;;;;;;4982264;28;20092;-85
2022/07/03 07:48:00;;;;;;;4.82;1.55;;;;;;;;;;4971802;28;20190;-85
2022/07/03 07:50:41;;;;;;;2.63;1.60;;;;;;;;;;4972371;28;20046;-86
2022/07/03 07:53:28;;;;;;;2.95;1.90;;;;;;;;;;4974136;28;20946;-84
2022/07/03 07:55:57;;;;;;;3.58;1.80;;;;;;;;;;4958486;28;20499;-84
2022/07/03 07:58:25;;;;;;;3.00;1.77;;;;;;;;;;4973818;28;20050;-84
2022/07/03 08:07:23;;;;;;;3.38;1.60;;;;;;;;;;4974207;28;20145;-85
2022/07/03 08:10:05;;;;;;;3.88;1.98;;;;;;;;;;4959860;28;20093;-84
2022/07/03 08:12:33;;;;;;;3.97;1.50;;;;;;;;;;4956151;28;20102;-84
2022/07/03 08:15:09;;;;;;;2.90;1.60;;;;;;;;;;4957643;28;20149;-84
2022/07/03 08:17:37;;;;;;;2.95;1.42;;;;;;;;;;4985827;28;20164;-85
2022/07/03 08:20:06;;;;;;;5.15;1.27;;;;;;;;;;5018821;28;20087;-84
2022/07/03 08:22:43;;;;;;;2.80;1.35;;;;;;;;;;5020858;28;20065;-83
2022/07/03 08:25:11;;;;;;;3.95;1.30;;;;;;;;;;5015792;28;20054;-83
2022/07/03 08:27:44;;;;;;;4.18;1.73;;;;;;;;;;4985423;28;20037;-84
2022/07/03 08:30:17;;;;;;;5.60;1.30;;;;;;;;;;5002496;28;20088;-84
2022/07/03 08:32:45;;;;;;;3.13;1.50;;;;;;;;;;5019191;28;20292;-83
2022/07/03 08:35:26;;;;;;;3.22;1.30;;;;;;;;;;4986617;28;20041;-84
2022/07/03 08:37:54;;;;;;;2.85;1.20;;;;;;;;;;5015739;28;20053;-85
2022/07/03 08:40:21;;;;;;;3.28;1.70;;;;;;;;;;4960408;28;20050;-85
2022/07/03 08:42:56;;;;;;;2.60;1.35;;;;;;;;;;4977510;28;20049;-85
2022/07/03 08:45:30;;;;;;;3.15;1.65;;;;;;;;;;5014555;28;20052;-85
2022/07/03 08:48:22;;;;;;;3.90;1.30;;;;;;;;;;5000394;28;20076;-84
2022/07/03 08:50:58;;;;;;;3.20;1.20;;;;;;;;;;5011720;28;20038;-84
2022/07/03 08:53:27;;;;;;;4.50;1.33;;;;;;;;;;4995016;28;20052;-84
2022/07/03 08:55:55;;;;;;;2.80;1.30;;;;;;;;;;5012619;28;20609;-84
2022/07/03 08:58:24;;;;;;;4.45;1.30;;;;;;;;;;4973397;28;20149;-84
2022/07/03 09:00:52;;;;;;;3.30;1.50;;;;;;;;;;4978990;28;20037;-85
2022/07/03 09:03:24;;;;;;;7.82;2.50;;;;;;;;;;4994278;28;20522;-85
2022/07/03 09:06:33;;;;;;;3.75;2.00;;;;;;;;;;5012083;28;20693;-83
2022/07/03 09:09:02;;;;;;;4.47;1.50;;;;;;;;;;5012360;28;20034;-83
2022/07/03 09:12:09;;;;;;;4.75;1.50;;;;;;;;;;5013474;28;20081;-85
2022/07/03 09:14:51;;;;;;;5.93;1.38;;;;;;;;;;4971795;28;20134;-85
2022/07/03 09:17:19;;;;;;;2.65;1.27;;;;;;;;;;4999203;28;20148;-85
2022/07/03 09:19:48;;;;;;;2.13;1.30;;;;;;;;;;5018495;28;20878;-84
2022/07/03 09:22:36;;;;;;;2.90;1.30;;;;;;;;;;5028979;28;20050;-83
2022/07/03 09:25:14;;;;;;;2.78;1.40;;;;;;;;;;5026326;28;20601;-83
2022/07/03 09:27:52;;;;;;;2.97;1.38;;;;;;;;;;5022311;28;20064;-83
2022/07/03 09:30:19;;;;;;;2.33;1.35;;;;;;;;;;5024729;28;20042;-82
2022/07/03 09:32:49;;;;;;;3.67;1.40;;;;;;;;;;5025323;28;20626;-82
2022/07/03 09:35:20;;;;;;;3.80;1.55;;;;;;;;;;5029477;28;20041;-84
2022/07/03 09:37:59;;;;;;;3.22;1.20;;;;;;;;;;4977899;28;20046;-84
2022/07/03 09:40:52;;;;;;;3.03;1.17;;;;;;;;;;4998634;28;20123;-84
2022/07/03 09:43:28;;;;;;;3.80;1.15;;;;;;;;;;5013199;28;20048;-84
2022/07/03 09:46:00;;;;;;;7.43;1.40;;;;;;;;;;4981388;28;20046;-84
2022/07/03 09:48:51;;;;;;;2.50;1.20;;;;;;;;;;5000348;28;20046;-84
2022/07/03 09:51:25;;;;;;;3.78;1.40;;;;;;;;;;5015380;28;20120;-83
2022/07/03 09:54:01;;;;;;;2.65;1.40;;;;;;;;;;5015359;28;20408;-83
2022/07/03 09:56:37;;;;;;;3.08;1.40;;;;;;;;;;4984559;28;20064;-83
2022/07/03 09:59:31;;;;;;;2.92;1.30;;;;;;;;;;5015991;28;20053;-83
2022/07/03 10:02:08;;;;;;;2.60;1.20;;;;;;;;;;5013863;28;20045;-84
2022/07/03 10:04:35;;;;;;;3.13;1.38;;;;;;;;;;5015991;28;20042;-84
2022/07/03 10:07:03;;;;;;;4.22;1.10;;;;;;;;;;4997473;28;20061;-84
2022/07/03 10:09:35;;;;;;;3.05;1.20;;;;;;;;;;5016649;28;20398;-84
2022/07/03 10:12:04;;;;;;;3.67;1.20;;;;;;;;;;4982268;28;20136;-83
2022/07/03 10:14:32;;;;;;;2.10;1.17;;;;;;;;;;5012760;28;20046;-83
2022/07/03 10:17:06;;;;;;;2.45;1.20;;;;;;;;;;5015028;28;20041;-83
2022/07/03 10:19:41;;;;;;;2.13;1.13;;;;;;;;;;4999146;28;20660;-84
2022/07/03 10:22:21;;;;;;;2.22;1.10;;;;;;;;;;5016197;28;20042;-84
2022/07/03 10:24:52;;;;;;;1.88;1.05;;;;;;;;;;5012698;28;20041;-83
2022/07/03 10:27:21;;;;;;;2.78;1.50;;;;;;;;;;5023008;28;20106;-83
2022/07/03 10:29:52;;;;;;;2.60;1.35;;;;;;;;;;4987689;28;20030;-85
2022/07/03 10:35:16;;;;;;;5.00;2.38;;;;;;;;;;5020904;28;20065;-84
2022/07/03 10:38:12;;;;;;;7.00;1.88;;;;;;;;;;5004288;28;20042;-84
2022/07/03 10:46:59;;;;;;;4.32;1.67;;;;;;;;;;5018924;28;20113;-84
2022/07/03 10:50:00;;;;;;;2.95;1.38;;;;;;;;;;5020494;28;20041;-85
2022/07/03 10:53:23;;;;;;;5.78;1.55;;;;;;;;;;5017931;28;20041;-85
2022/07/03 10:56:04;;;;;;;3.90;1.60;;;;;;;;;;5021907;28;20083;-84
2022/07/03 10:58:31;;;;;;;2.97;1.27;;;;;;;;;;5023593;28;20073;-85
2022/07/03 11:01:06;;;;;;;4.53;1.50;;;;;;;;;;5019033;28;20038;-84
2022/07/03 11:03:56;;;;;;;2.17;1.08;;;;;;;;;;5005309;28;20075;-84
2022/07/03 11:06:42;;;;;;;4.95;1.40;;;;;;;;;;5024609;28;20046;-84
2022/07/03 11:09:12;;;;;;;3.22;1.13;;;;;;;;;;5016992;28;20037;-84
2022/07/03 11:12:09;;;;;;;2.70;1.20;;;;;;;;;;5011500;28;20408;-87
2022/07/03 11:15:41;;;;;;;3.47;1.20;;;;;;;;;;5014941;28;20042;-84
2022/07/03 11:18:29;;;;;;;3.03;1.05;;;;;;;;;;4993305;28;20479;-84
2022/07/03 11:21:32;;;;;;;2.72;1.17;;;;;;;;;;5005480;28;21971;-85
2022/07/03 11:24:23;;;;;;;3.15;1.40;;;;;;;;;;4999178;28;20046;-85
2022/07/03 11:27:41;;;;;;;2.38;1.20;;;;;;;;;;5008175;28;20056;-85
2022/07/03 11:31:03;;;;;;;2.05;1.10;;;;;;;;;;4969528;28;20041;-85
2022/07/03 11:34:49;;;;;;;3.75;1.50;;;;;;;;;;4991363;28;20172;-85
2022/07/03 11:37:39;;;;;;;3.65;1.40;;;;;;;;;;4953654;28;20104;-85
2022/07/03 11:40:27;;;;;;;2.35;1.20;;;;;;;;;;4961208;28;20112;-85
2022/07/03 11:43:20;;;;;;;2.78;1.30;;;;;;;;;;4991605;28;20503;-85
2022/07/03 11:46:09;;;;;;;2.40;1.10;;;;;;;;;;4989913;28;20042;-84
2022/07/03 11:49:12;;;;;;;2.65;1.00;;;;;;;;;;4964575;28;20113;-86
2022/07/03 11:52:01;;;;;;;2.90;1.30;;;;;;;;;;4991096;28;20041;-84
2022/07/03 11:54:55;;;;;;;2.83;1.20;;;;;;;;;;4991062;28;20088;-84
2022/07/03 11:57:49;;;;;;;5.10;1.48;;;;;;;;;;4988077;28;20093;-86
2022/07/03 12:00:32;;;;;;;5.75;1.10;;;;;;;;;;4991257;28;20046;-84
2022/07/03 12:03:03;;;;;;;2.72;1.02;;;;;;;;;;4961236;28;20078;-86
2022/07/03 12:05:58;;;;;;;2.22;1.00;;;;;;;;;;5012167;28;20044;-85
2022/07/03 12:08:49;;;;;;;2.47;1.05;;;;;;;;;;5012849;28;20112;-85
2022/07/03 12:11:17;;;;;;;2.88;1.20;;;;;;;;;;4996185;28;20049;-83
2022/07/03 12:13:46;;;;;;;2.97;1.50;;;;;;;;;;5005669;28;20049;-84
2022/07/03 12:16:39;;;;;;;4.60;1.25;;;;;;;;;;4988990;28;20064;-84
2022/07/03 12:19:12;;;;;;;2.72;1.20;;;;;;;;;;4973383;28;20069;-86
2022/07/03 12:21:53;;;;;;;4.30;1.10;;;;;;;;;;4997187;28;20038;-84
2022/07/03 12:24:40;;;;;;;2.80;1.10;;;;;;;;;;4995187;28;20130;-84
2022/07/03 12:27:09;;;;;;;3.28;0.90;;;;;;;;;;5015685;28;20068;-84
2022/07/03 12:29:37;;;;;;;2.53;1.40;;;;;;;;;;5012382;28;20046;-84
2022/07/03 12:36:08;;;;;;;3.72;1.00;;;;;;;;;;4997746;28;20244;-84
2022/07/03 12:39:00;;;;;;;2.95;1.13;;;;;;;;;;4989078;28;20491;-84
2022/07/03 12:41:33;;;;;;;3.88;1.25;;;;;;;;;;5008121;28;20058;-86
2022/07/03 12:45:03;;;;;;;;;;;;;;;;;;5009269;28;20042;-85
2022/07/03 12:48:12;;;;;;;2.20;0.80;;;;;;;;;;5012974;28;19980;-85
2022/07/03 12:51:55;;;;;;;2.63;1.13;;;;;;;;;;4921360;29;20066;-85
2022/07/03 13:04:33;;;;;;;5.35;1.55;;;;;;;;;;4860143;29;20076;-85
2022/07/03 13:07:31;;;;;;;6.88;1.48;;;;;;;;;;4853348;29;20392;-84
2022/07/03 13:10:01;;;;;;;4.97;1.23;;;;;;;;;;4843547;29;20591;-83
2022/07/03 13:12:29;;;;;;;2.35;1.20;;;;;;;;;;4858898;29;20052;-84
2022/07/03 13:18:59;;;;;;;2.13;1.20;;;;;;;;;;4859879;29;20068;-83
2022/07/03 13:21:27;;;;;;;4.53;1.27;;;;;;;;;;4871792;29;20051;-83
2022/07/03 13:24:27;;;;;;;3.63;1.13;;;;;;;;;;4932659;29;20130;-83
2022/07/03 13:26:58;;;;;;;4.22;1.08;;;;;;;;;;4949070;28;20067;-83
2022/07/03 13:29:25;;;;;;;2.60;1.48;;;;;;;;;;4950642;28;20078;-83
2022/07/03 13:31:54;;;;;;;2.10;1.00;;;;;;;;;;4933036;28;20078;-84
2022/07/03 13:34:22;;;;;;;3.80;1.15;;;;;;;;;;4935638;28;20446;-83
2022/07/03 13:36:50;;;;;;;2.63;1.10;;;;;;;;;;4951124;28;20082;-82
2022/07/03 13:39:18;;;;;;;2.72;1.10;;;;;;;;;;4950887;28;20074;-84
2022/07/03 13:41:45;;;;;;;2.30;1.20;;;;;;;;;;4927316;28;20577;-84
2022/07/03 13:44:37;;;;;;;2.63;1.17;;;;;;;;;;4951690;28;20069;-85
2022/07/03 13:48:22;;;;;;;2.45;0.90;;;;;;;;;;4915163;28;20594;-84
2022/07/03 13:51:05;;;;;;;3.65;1.00;;;;;;;;;;4948328;28;20062;-83
2022/07/03 13:54:10;;;;;;;2.05;0.93;;;;;;;;;;4960276;28;20058;-84
2022/07/03 13:57:19;;;;;;;2.08;0.80;;;;;;;;;;4954474;28;20572;-89
2022/07/03 14:00:13;;;;;;;3.53;1.08;;;;;;;;;;4972392;28;20043;-89
2022/07/03 14:02:47;;;;;;;3.40;1.00;;;;;;;;;;4974038;28;20129;-84
2022/07/03 14:05:15;;;;;;;2.42;0.80;;;;;;;;;;4957391;28;20058;-84
2022/07/03 14:07:43;;;;;;;2.75;1.15;;;;;;;;;;4974117;28;20054;-85
2022/07/03 14:10:35;;;;;;;3.13;1.00;;;;;;;;;;4974330;28;20042;-85
2022/07/03 14:13:05;;;;;;;2.38;0.85;;;;;;;;;;4973339;28;20061;-85
2022/07/03 14:15:35;;;;;;;2.25;1.20;;;;;;;;;;4972358;28;20047;-84
2022/07/03 14:18:03;;;;;;;2.25;0.98;;;;;;;;;;4963122;28;20607;-85
2022/07/03 14:20:37;;;;;;;4.10;1.10;;;;;;;;;;4999125;28;20037;-85
2022/07/03 14:23:05;;;;;;;4.03;1.10;;;;;;;;;;5015652;28;20072;-84
2022/07/03 14:25:34;;;;;;;2.55;1.10;;;;;;;;;;4996379;28;20113;-85
2022/07/03 14:35:37;;;;;;;2.85;0.90;;;;;;;;;;4878017;29;20071;-84
2022/07/03 14:48:38;;;;;;;3.70;1.05;;;;;;;;;;4851038;29;20057;-86
2022/07/03 14:57:52;;;;;;;2.83;1.10;;;;;;;;;;4780659;29;20043;-86
2022/07/03 15:01:11;;;;;;;2.88;0.82;;;;;;;;;;4793936;29;20428;-86
2022/07/03 15:04:47;;;;;;;3.25;0.80;;;;;;;;;;4790767;29;20469;-85
2022/07/03 15:08:04;;;;;;;2.42;0.95;;;;;;;;;;4814907;29;20142;-86
2022/07/03 15:12:26;;;;;;;1.65;0.85;;;;;;;;;;4815873;29;20058;-86
2022/07/03 15:15:49;;;;;;;2.17;1.00;;;;;;;;;;4848215;29;20054;-87
2022/07/03 15:20:17;;;;;;;2.78;1.00;;;;;;;;;;4838257;29;20141;-86
2022/07/03 15:24:41;;;;;;;2.15;0.85;;;;;;;;;;4840238;29;20058;-86
2022/07/03 15:27:57;;;;;;;2.00;0.80;;;;;;;;;;4841169;29;20053;-85
2022/07/03 15:32:35;;;;;;;2.30;0.90;;;;;;;;;;4830574;29;20050;-87
2022/07/03 15:37:12;;;;;;;1.98;0.90;;;;;;;;;;4781482;29;20054;-87
2022/07/03 15:41:49;;;;;;;4.40;1.10;;;;;;;;;;4740215;30;20068;-87
2022/07/03 16:09:04;;;;;;;5.03;1.05;;;;;;;;;;4798375;29;20073;-86
2022/07/03 16:13:36;;;;;;;6.10;1.20;;;;;;;;;;4722389;30;20082;-86
2022/07/03 16:22:35;;;;;;;1.73;1.00;;;;;;;;;;4795129;29;20101;-86
2022/07/03 16:26:26;;;;;;;3.45;1.50;;;;;;;;;;4794517;29;20089;-87
2022/07/03 16:30:19;;;;;;;4.63;1.20;;;;;;;;;;4794324;29;20102;-86
2022/07/03 17:02:07;;;;;;;2.85;1.10;;;;;;;;;;4916439;29;20150;-87
2022/07/03 17:05:21;;;;;;;2.70;1.00;;;;;;;;;;4904049;29;20158;-85
2022/07/03 17:08:16;;;;;;;3.78;1.00;;;;;;;;;;4898551;29;20048;-85
2022/07/03 17:10:58;;;;;;;3.83;1.08;;;;;;;;;;4924077;29;20052;-85
2022/07/03 17:13:43;;;;;;;1.98;1.02;;;;;;;;;;4916246;29;20063;-85
2022/07/03 17:16:18;;;;;;;3.42;1.00;;;;;;;;;;4886049;29;20056;-86
2022/07/03 17:19:24;;;;;;;5.03;1.10;;;;;;;;;;4904948;29;20061;-85
2022/07/03 17:22:13;;;;;;;4.10;1.10;;;;;;;;;;4910037;29;20063;-84
2022/07/03 17:25:05;;;;;;;4.85;1.20;;;;;;;;;;4908489;28;20725;-85
2022/07/03 17:27:46;;;;;;;2.10;1.02;;;;;;;;;;4937892;28;20078;-83
2022/07/03 17:30:41;;;;;;;3.03;1.13;;;;;;;;;;4933121;28;20448;-84
2022/07/03 17:33:28;;;;;;;4.47;1.23;;;;;;;;;;4949220;28;20058;-84
2022/07/03 17:36:16;;;;;;;3.90;0.90;;;;;;;;;;4939073;28;20066;-84
2022/07/03 17:40:22;;;;;;;3.30;1.20;;;;;;;;;;4964913;28;20167;-85
2022/07/03 17:44:59;;;;;;;3.42;1.23;;;;;;;;;;4967157;28;20043;-84
2022/07/03 17:48:05;;;;;;;4.60;1.10;;;;;;;;;;4946301;28;20133;-86
2022/07/03 17:51:14;;;;;;;3.87;1.43;;;;;;;;;;4926480;28;20580;-83
2022/07/03 17:54:02;;;;;;;2.72;1.00;;;;;;;;;;4942758;28;20137;-84
2022/07/03 17:58:06;;;;;;;3.58;1.13;;;;;;;;;;4942659;28;20059;-86
2022/07/03 18:02:11;;;;;;;2.30;1.10;;;;;;;;;;4933171;28;20106;-84
2022/07/03 18:04:57;;;;;;;2.88;1.50;;;;;;;;;;4945816;28;20071;-84
2022/07/03 18:08:03;;;;;;;4.15;1.40;;;;;;;;;;4932091;28;20141;-83
2022/07/03 18:10:40;;;;;;;4.97;1.50;;;;;;;;;;4945172;28;20047;-84
2022/07/03 18:13:48;;;;;;;2.97;1.15;;;;;;;;;;4945537;29;20051;-84
2022/07/03 18:16:37;;;;;;;2.78;1.40;;;;;;;;;;4945867;29;20194;-85
2022/07/03 18:20:23;;;;;;;2.95;1.40;;;;;;;;;;4960591;28;20054;-83
2022/07/03 18:24:12;;;;;;;2.42;1.10;;;;;;;;;;4974626;28;20053;-86
2022/07/03 18:26:56;;;;;;;4.40;1.30;;;;;;;;;;4981869;28;20169;-85
2022/07/03 18:29:44;;;;;;;4.15;1.10;;;;;;;;;;5016730;28;20049;-85
2022/07/03 18:32:53;;;;;;;7.15;1.55;;;;;;;;;;4994737;28;20052;-85
2022/07/03 18:35:41;;;;;;;4.90;1.38;;;;;;;;;;5018991;28;20069;-86
2022/07/03 18:38:34;;;;;;;2.97;1.40;;;;;;;;;;4977835;28;20487;-86
2022/07/03 18:41:37;;;;;;;3.80;1.20;;;;;;;;;;5014579;28;20033;-86
2022/07/03 18:44:36;;;;;;;6.90;1.50;;;;;;;;;;4998585;28;20038;-85
2022/07/03 18:47:55;;;;;;;3.40;1.60;;;;;;;;;;5009772;28;20050;-87
2022/07/03 18:52:35;;;;;;;2.58;1.35;;;;;;;;;;5015724;28;20547;-86
2022/07/03 18:56:19;;;;;;;4.30;1.40;;;;;;;;;;5011278;28;20080;-85
2022/07/03 18:59:03;;;;;;;3.60;1.38;;;;;;;;;;4996257;28;20049;-85
2022/07/03 19:02:40;;;;;;;3.50;1.27;;;;;;;;;;4982727;28;20060;-86
2022/07/03 19:05:13;;;;;;;4.43;1.48;;;;;;;;;;4983429;28;20038;-83
2022/07/03 19:07:57;;;;;;;4.68;1.77;;;;;;;;;;5016404;28;20468;-83
2022/07/03 19:11:00;;;;;;;3.55;1.60;;;;;;;;;;5003822;28;20626;-83
2022/07/03 19:13:40;;;;;;;2.47;1.23;;;;;;;;;;5011901;28;20049;-83
2022/07/03 19:16:40;;;;;;;3.72;1.30;;;;;;;;;;4997727;28;20042;-84
2022/07/03 19:19:08;;;;;;;4.35;1.40;;;;;;;;;;5013119;28;20055;-83
2022/07/03 19:21:35;;;;;;;4.80;1.30;;;;;;;;;;4998401;28;20045;-83
2022/07/03 19:24:04;;;;;;;3.05;1.10;;;;;;;;;;4997970;28;20050;-83
2022/07/03 19:26:32;;;;;;;5.07;1.30;;;;;;;;;;5011563;28;20057;-83
2022/07/03 19:29:00;;;;;;;3.28;1.25;;;;;;;;;;5015672;28;20049;-83
2022/07/03 19:31:30;;;;;;;1.63;0.82;;;;;;;;;;5011370;28;20105;-84
2022/07/03 19:34:12;;;;;;;1.92;1.10;;;;;;;;;;5014534;28;20192;-83
2022/07/03 19:36:39;;;;;;;4.15;1.38;;;;;;;;;;4998912;28;20042;-84
2022/07/03 19:39:12;;;;;;;2.40;1.13;;;;;;;;;;4997095;28;20088;-82
2022/07/03 19:41:45;;;;;;;4.75;1.45;;;;;;;;;;5012163;28;20037;-83
2022/07/03 19:44:27;;;;;;;4.45;1.30;;;;;;;;;;4973533;28;20108;-84
2022/07/03 19:46:55;;;;;;;4.35;1.10;;;;;;;;;;4993808;28;20060;-84
2022/07/03 19:49:50;;;;;;;3.20;1.30;;;;;;;;;;5014339;28;20038;-84
2022/07/03 19:52:17;;;;;;;5.00;1.30;;;;;;;;;;4995554;28;20128;-84
2022/07/03 19:54:55;;;;;;;2.85;1.20;;;;;;;;;;5013391;28;20048;-84
2022/07/03 19:57:27;;;;;;;4.47;1.40;;;;;;;;;;5014409;28;20107;-84
2022/07/03 19:59:55;;;;;;;4.25;1.20;;;;;;;;;;4996969;28;20034;-84
2022/07/03 20:02:25;;;;;;;3.80;1.30;;;;;;;;;;5010403;28;20618;-84
2022/07/03 20:04:58;;;;;;;3.65;1.30;;;;;;;;;;4998039;28;20053;-85
2022/07/03 20:08:10;;;;;;;3.42;1.65;;;;;;;;;;5015310;28;20077;-83
2022/07/03 20:10:54;;;;;;;2.42;1.10;;;;;;;;;;4996745;28;20053;-84
2022/07/03 20:13:25;;;;;;;2.60;1.30;;;;;;;;;;4995606;28;20060;-85
2022/07/03 20:15:59;;;;;;;3.45;1.23;;;;;;;;;;4978330;28;20123;-85
2022/07/03 20:18:27;;;;;;;2.58;1.27;;;;;;;;;;4994100;28;20156;-85
2022/07/03 20:20:55;;;;;;;2.88;1.50;;;;;;;;;;4982208;28;20115;-85
2022/07/03 20:23:23;;;;;;;2.83;1.20;;;;;;;;;;4998022;28;20529;-85
2022/07/03 20:26:07;;;;;;;2.50;1.30;;;;;;;;;;5011142;28;20045;-82
2022/07/03 20:28:45;;;;;;;3.90;1.30;;;;;;;;;;4995864;28;20049;-82
2022/07/03 20:31:24;;;;;;;2.10;1.27;;;;;;;;;;4995419;28;20161;-82
2022/07/03 20:34:23;;;;;;;2.55;1.13;;;;;;;;;;4977964;28;20041;-85
2022/07/03 20:47:20;;;;;;;4.25;1.58;;;;;;;;;;4942753;28;20516;-86
2022/07/03 20:50:22;;;;;;;3.70;1.17;;;;;;;;;;4932151;29;20093;-86
2022/07/03 20:53:24;;;;;;;3.42;1.30;;;;;;;;;;4943257;29;20444;-85
2022/07/03 20:56:06;;;;;;;2.85;1.27;;;;;;;;;;4943660;28;20058;-85
2022/07/03 20:59:29;;;;;;;3.33;1.35;;;;;;;;;;4927205;28;20148;-85
2022/07/03 21:03:39;;;;;;;2.92;1.17;;;;;;;;;;4940314;28;20047;-86
2022/07/03 21:07:19;;;;;;;2.15;1.30;;;;;;;;;;4945607;28;20103;-86
2022/07/03 21:11:40;;;;;;;2.90;1.30;;;;;;;;;;4977969;28;20076;-84
2022/07/03 21:14:32;;;;;;;5.30;1.52;;;;;;;;;;4966203;28;20180;-86
2022/07/03 22:19:19;;;;;;;3.30;1.23;;;;;;;;;;4914161;29;20042;-85
2022/07/03 22:23:57;;;;;;;5.25;1.50;;;;;;;;;;4806811;29;20052;-86
2022/07/03 22:27:55;;;;;;;3.13;1.30;;;;;;;;;;4764889;29;20089;-85
2022/07/03 22:31:54;;;;;;;3.03;1.30;;;;;;;;;;4750385;29;20059;-86
2022/07/03 22:36:30;;;;;;;4.70;1.38;;;;;;;;;;4779157;30;20074;-86
2022/07/03 22:41:10;;;;;;;3.85;1.25;;;;;;;;;;4725720;30;20052;-86
2022/07/03 22:45:48;;;;;;;3.38;1.40;;;;;;;;;;4642717;30;20603;-86
2022/07/03 22:50:28;;;;;;;3.38;1.30;;;;;;;;;;4641754;30;20055;-85
2022/07/03 22:54:22;;;;;;;3.78;1.45;;;;;;;;;;4613296;30;20106;-85
2022/07/03 22:57:20;;;;;;;3.78;1.40;;;;;;;;;;4633989;30;20067;-84
2022/07/03 23:01:27;;;;;;;4.35;1.30;;;;;;;;;;4684601;30;20141;-83
2022/07/03 23:04:14;;;;;;;2.97;1.40;;;;;;;;;;4663082;30;20818;-84
2022/07/03 23:41:05;;;;;;;3.75;1.70;;;;;;;;;;4787593;29;20070;-85
2022/07/03 23:44:07;;;;;;;5.25;1.70;;;;;;;;;;4799976;29;20054;-85
2022/07/03 23:52:17;;;;;;;5.30;1.95;;;;;;;;;;4843336;29;20050;-84
